createdAt,value
2022-08-03T00:01:01.761Z,59.54
2022-08-03T00:03:30.199Z,59.66
2022-08-03T00:06:04.236Z,59.54
2022-08-03T00:08:40.174Z,59.68
2022-08-03T00:11:10.708Z,59.39
2022-08-03T00:13:39.190Z,59.65
2022-08-03T00:16:08.062Z,59.62
2022-08-03T00:18:37.174Z,60.03
2022-08-03T00:21:08.589Z,60.01
2022-08-03T00:23:51.120Z,60.10
2022-08-03T00:26:22.415Z,60.06
2022-08-03T00:28:52.406Z,60.10
2022-08-03T00:31:45.012Z,60.08
2022-08-03T00:34:13.022Z,60.10
2022-08-03T00:36:46.432Z,60.13
2022-08-03T00:39:14.623Z,60.24
2022-08-03T00:42:14.347Z,60.24
2022-08-03T00:45:01.111Z,60.13
2022-08-03T00:47:29.520Z,60.20
2022-08-03T00:49:58.087Z,60.20
2022-08-03T00:52:27.672Z,60.02
2022-08-03T00:54:56.525Z,60.38
2022-08-03T00:57:27.586Z,60.50
2022-08-03T00:59:58.084Z,60.46
2022-08-03T01:02:26.330Z,60.48
2022-08-03T01:04:54.897Z,60.67
2022-08-03T01:07:31.739Z,60.55
2022-08-03T01:10:07.834Z,60.63
2022-08-03T01:12:44.194Z,60.80
2022-08-03T01:15:18.939Z,60.55
2022-08-03T01:17:56.455Z,60.97
2022-08-03T01:20:35.116Z,60.73
2022-08-03T01:23:44.783Z,60.75
2022-08-03T01:26:34.522Z,60.50
2022-08-03T01:29:34.037Z,60.64
2022-08-03T01:32:58.564Z,60.44
2022-08-03T01:35:10.572Z,60.73
2022-08-03T01:37:44.252Z,60.63
2022-08-03T01:40:18.122Z,60.72
2022-08-03T01:42:59.357Z,60.79
2022-08-03T01:45:29.069Z,60.44
2022-08-03T01:48:05.291Z,60.62
2022-08-03T01:50:34.526Z,60.74
2022-08-03T01:53:03.607Z,60.62
2022-08-03T01:55:39.118Z,60.41
2022-08-03T01:58:09.002Z,60.46
2022-08-03T02:00:39.098Z,60.24
2022-08-03T02:03:20.295Z,60.30
2022-08-03T02:06:17.850Z,60.10
2022-08-03T02:08:48.759Z,60.31
2022-08-03T02:11:20.835Z,60.18
2022-08-03T02:13:50.983Z,60.06
2022-08-03T02:16:25.540Z,60.14
2022-08-03T02:18:59.556Z,60.12
2022-08-03T02:21:57.290Z,60.05
2022-08-03T02:24:22.604Z,59.94
2022-08-03T02:26:52.787Z,60.01
2022-08-03T02:29:39.299Z,59.82
2022-08-03T02:32:12.746Z,59.88
2022-08-03T02:34:46.444Z,59.71
2022-08-03T02:39:59.394Z,60.32
2022-08-03T02:42:51.655Z,59.96
2022-08-03T02:45:22.493Z,59.87
2022-08-03T02:50:39.259Z,60.21
2022-08-03T02:53:09.245Z,60.05
2022-08-03T02:55:45.805Z,60.17
2022-08-03T02:58:16.962Z,59.95
2022-08-03T03:00:46.212Z,60.15
2022-08-03T03:03:20.620Z,59.99
2022-08-03T03:05:57.684Z,60.40
2022-08-03T03:08:28.806Z,60.31
2022-08-03T03:11:05.592Z,60.31
2022-08-03T03:13:42.345Z,60.26
2022-08-03T03:16:52.146Z,60.29
2022-08-03T03:23:32.438Z,61.00
2022-08-03T03:26:03.504Z,60.80
2022-08-03T03:31:15.925Z,60.72
2022-08-03T03:33:47.509Z,60.75
2022-08-03T03:36:16.338Z,61.32
2022-08-03T03:38:46.023Z,61.33
2022-08-03T03:41:15.782Z,61.37
2022-08-03T03:43:44.787Z,61.11
2022-08-03T03:46:14.357Z,61.13
2022-08-03T03:48:44.440Z,61.17
2022-08-03T03:51:13.387Z,61.39
2022-08-03T03:53:58.356Z,61.32
2022-08-03T03:56:30.855Z,61.19
2022-08-03T03:59:07.994Z,61.28
2022-08-03T04:01:36.199Z,61.26
2022-08-03T04:04:22.399Z,61.41
2022-08-03T04:07:08.282Z,61.37
2022-08-03T04:09:59.243Z,61.90
2022-08-03T04:12:40.186Z,61.62
2022-08-03T04:15:22.590Z,61.90
2022-08-03T04:17:53.993Z,61.93
2022-08-03T04:20:24.467Z,61.56
2022-08-03T04:22:54.637Z,61.79
2022-08-03T04:25:29.286Z,61.85
2022-08-03T04:28:29.330Z,61.84
2022-08-03T04:30:51.136Z,61.87
2022-08-03T04:33:20.999Z,61.70
2022-08-03T04:36:01.032Z,61.92
2022-08-03T04:38:35.716Z,61.89
2022-08-03T04:41:07.522Z,62.08
2022-08-03T04:43:40.093Z,62.00
2022-08-03T04:46:13.376Z,61.96
2022-08-03T04:48:44.776Z,61.93
2022-08-03T04:51:19.760Z,61.89
2022-08-03T04:53:48.341Z,61.98
2022-08-03T04:56:22.986Z,61.98
2022-08-03T04:59:07.197Z,62.05
2022-08-03T05:01:36.314Z,62.21
2022-08-03T05:04:05.563Z,62.33
2022-08-03T05:06:34.395Z,62.16
2022-08-03T05:09:05.257Z,62.33
2022-08-03T05:11:39.394Z,62.37
2022-08-03T05:14:08.200Z,62.18
2022-08-03T05:16:36.590Z,62.33
2022-08-03T05:19:04.953Z,62.37
2022-08-03T05:21:53.732Z,62.46
2022-08-03T05:24:23.586Z,62.37
2022-08-03T05:26:53.470Z,62.57
2022-08-03T05:29:22.425Z,62.23
2022-08-03T05:31:51.000Z,62.84
2022-08-03T05:34:20.410Z,62.64
2022-08-03T05:36:48.654Z,62.67
2022-08-03T05:39:16.877Z,62.81
2022-08-03T05:41:45.811Z,62.49
2022-08-03T05:44:15.702Z,62.56
2022-08-03T05:46:44.175Z,62.62
2022-08-03T05:49:12.481Z,62.75
2022-08-03T05:51:44.013Z,62.70
2022-08-03T05:54:12.704Z,62.79
2022-08-03T05:56:41.437Z,63.00
2022-08-03T05:59:35.692Z,62.87
2022-08-03T06:02:00.290Z,62.69
2022-08-03T06:04:29.665Z,62.67
2022-08-03T06:06:57.886Z,62.77
2022-08-03T06:09:31.860Z,62.71
2022-08-03T06:12:16.314Z,62.87
2022-08-03T06:14:44.964Z,61.87
2022-08-03T06:17:19.231Z,61.87
2022-08-03T06:19:47.435Z,62.19
2022-08-03T06:22:16.886Z,61.99
2022-08-03T06:24:53.438Z,62.08
2022-08-03T06:27:36.392Z,61.92
2022-08-03T06:30:06.441Z,61.92
2022-08-03T06:32:36.245Z,62.17
2022-08-03T06:35:04.472Z,62.17
2022-08-03T06:37:34.982Z,62.15
2022-08-03T06:40:08.020Z,62.19
2022-08-03T06:42:36.168Z,62.26
2022-08-03T06:45:05.992Z,62.45
2022-08-03T06:47:36.071Z,62.41
2022-08-03T06:50:13.031Z,62.42
2022-08-03T06:52:45.779Z,62.18
2022-08-03T06:55:13.926Z,62.51
2022-08-03T06:57:42.154Z,62.39
2022-08-03T07:00:12.820Z,62.64
2022-08-03T07:02:43.166Z,62.81
2022-08-03T07:05:11.991Z,62.80
2022-08-03T07:07:41.085Z,62.46
2022-08-03T07:10:11.681Z,62.64
2022-08-03T07:12:55.607Z,62.87
2022-08-03T07:15:53.778Z,62.51
2022-08-03T07:18:15.647Z,62.55
2022-08-03T07:20:46.838Z,62.56
2022-08-03T07:23:19.271Z,62.64
2022-08-03T07:25:48.299Z,63.03
2022-08-03T07:28:18.806Z,63.00
2022-08-03T07:30:47.196Z,63.02
2022-08-03T07:33:17.000Z,63.07
2022-08-03T07:35:45.403Z,63.22
2022-08-03T07:38:13.780Z,63.05
2022-08-03T07:40:45.853Z,63.34
2022-08-03T07:43:15.724Z,63.28
2022-08-03T07:45:44.004Z,63.15
2022-08-03T07:48:12.872Z,63.24
2022-08-03T07:50:42.567Z,63.45
2022-08-03T07:53:11.016Z,62.92
2022-08-03T07:55:39.526Z,63.05
2022-08-03T07:58:12.608Z,62.54
2022-08-03T08:00:41.554Z,62.90
2022-08-03T08:03:10.229Z,62.62
2022-08-03T08:05:40.158Z,62.20
2022-08-03T08:08:10.181Z,61.83
2022-08-03T08:10:38.913Z,61.57
2022-08-03T08:13:07.940Z,62.00
2022-08-03T08:15:36.297Z,62.03
2022-08-03T08:18:11.864Z,61.71
2022-08-03T08:20:40.258Z,62.09
2022-08-03T08:23:35.447Z,61.65
2022-08-03T08:26:01.270Z,61.16
2022-08-03T08:28:33.565Z,61.18
2022-08-03T08:31:02.848Z,60.58
2022-08-03T08:34:04.577Z,60.85
2022-08-03T08:36:36.812Z,60.04
2022-08-03T08:39:22.657Z,60.15
2022-08-03T08:42:12.054Z,58.93
2022-08-03T08:44:43.435Z,57.95
2022-08-03T08:47:51.797Z,57.07
2022-08-03T08:50:29.556Z,57.00
2022-08-03T08:53:05.857Z,56.48
2022-08-03T08:55:59.207Z,56.28
2022-08-03T08:58:38.764Z,55.87
2022-08-03T09:01:09.172Z,55.44
2022-08-03T09:03:44.428Z,55.81
2022-08-03T09:06:13.584Z,55.82
2022-08-03T09:17:08.374Z,53.02
2022-08-03T09:20:03.585Z,53.44
2022-08-03T09:22:35.947Z,52.74
2022-08-03T09:27:45.193Z,52.46
2022-08-03T09:30:33.324Z,51.80
2022-08-03T09:33:11.770Z,52.38
2022-08-03T09:36:02.497Z,52.07
2022-08-03T09:38:31.745Z,51.70
2022-08-03T09:41:01.120Z,51.80
2022-08-03T09:43:44.042Z,50.30
2022-08-03T09:46:32.342Z,50.04
2022-08-03T09:49:20.050Z,49.47
2022-08-03T09:52:38.239Z,50.02
2022-08-03T09:56:30.696Z,48.84
2022-08-03T09:58:09.663Z,48.39
2022-08-03T10:09:54.356Z,48.00
2022-08-03T10:12:24.754Z,46.79
2022-08-03T10:14:55.495Z,47.51
2022-08-03T10:17:25.824Z,47.67
2022-08-03T10:19:56.699Z,47.58
2022-08-03T10:22:29.641Z,47.01
2022-08-03T10:28:30.790Z,46.06
2022-08-03T10:34:10.730Z,44.68
2022-08-03T10:39:23.477Z,44.93
2022-08-03T10:47:27.638Z,44.33
2022-08-03T10:49:59.449Z,44.89
2022-08-03T10:52:31.854Z,44.66
2022-08-03T10:59:27.788Z,45.51
2022-08-03T11:02:01.211Z,45.54
2022-08-03T11:05:05.436Z,46.61
2022-08-03T11:07:53.112Z,46.12
2022-08-03T11:10:33.514Z,46.09
2022-08-03T11:13:13.886Z,46.13
2022-08-03T11:16:00.024Z,46.43
2022-08-03T11:18:38.489Z,46.02
2022-08-03T11:21:15.664Z,46.47
2022-08-03T11:24:04.486Z,46.25
2022-08-03T11:26:35.761Z,46.09
2022-08-03T11:29:40.011Z,45.63
2022-08-03T11:32:09.855Z,45.40
2022-08-03T11:35:12.801Z,45.95
2022-08-03T11:38:20.599Z,46.08
2022-08-03T11:50:20.310Z,45.12
2022-08-03T11:52:54.514Z,44.83
2022-08-03T11:55:29.007Z,44.61
2022-08-03T11:59:17.769Z,44.25
2022-08-03T12:04:16.630Z,43.62
2022-08-03T12:07:00.692Z,44.44
2022-08-03T12:09:30.551Z,44.37
2022-08-03T12:14:54.582Z,43.35
2022-08-03T12:17:23.183Z,42.19
2022-08-03T12:19:53.408Z,42.68
2022-08-03T12:22:39.442Z,43.41
2022-08-03T12:25:13.792Z,43.42
2022-08-03T12:27:43.765Z,43.62
2022-08-03T12:30:15.245Z,43.22
2022-08-03T12:32:47.491Z,43.80
2022-08-03T12:35:25.786Z,43.80
2022-08-03T12:37:58.861Z,43.90
2022-08-03T12:40:33.274Z,43.86
2022-08-03T12:43:18.664Z,44.12
2022-08-03T12:45:47.510Z,44.02
2022-08-03T12:48:17.244Z,44.22
2022-08-03T12:50:46.299Z,44.70
2022-08-03T12:53:32.735Z,44.44
2022-08-03T12:56:10.846Z,44.76
2022-08-03T12:58:40.234Z,44.60
2022-08-03T13:01:09.728Z,44.51
2022-08-03T13:03:55.554Z,43.82
2022-08-03T13:06:28.943Z,43.78
2022-08-03T13:09:15.244Z,44.14
2022-08-03T13:12:08.300Z,43.32
2022-08-03T13:14:39.990Z,43.24
2022-08-03T13:17:09.214Z,44.60
2022-08-03T13:19:39.874Z,41.67
2022-08-03T13:22:16.234Z,41.77
2022-08-03T13:24:50.866Z,41.41
2022-08-03T13:27:58.845Z,42.12
2022-08-03T13:30:11.453Z,40.74
2022-08-03T13:32:43.175Z,38.48
2022-08-03T13:35:17.492Z,38.31
2022-08-03T13:37:48.862Z,37.51
2022-08-03T13:40:30.474Z,36.93
2022-08-03T13:43:01.125Z,39.46
2022-08-03T13:45:36.468Z,36.86
2022-08-03T13:48:05.248Z,36.83
2022-08-03T13:50:34.604Z,36.38
2022-08-03T13:53:10.898Z,35.37
2022-08-03T13:55:44.038Z,35.54
2022-08-03T14:01:09.011Z,37.17
2022-08-03T14:03:37.445Z,36.75
2022-08-03T14:06:21.617Z,36.75
2022-08-03T14:08:50.953Z,36.80
2022-08-03T14:11:21.505Z,36.76
2022-08-03T14:13:53.359Z,35.03
2022-08-03T14:16:28.076Z,35.90
2022-08-03T14:18:59.367Z,36.53
2022-08-03T14:21:30.662Z,35.55
2022-08-03T14:23:58.945Z,32.73
2022-08-03T14:26:27.521Z,32.84
2022-08-03T14:29:01.031Z,32.67
2022-08-03T14:32:11.713Z,32.75
2022-08-03T14:34:17.846Z,33.40
2022-08-03T14:36:47.254Z,33.63
2022-08-03T14:39:16.523Z,33.28
2022-08-03T14:41:45.671Z,32.32
2022-08-03T14:44:17.310Z,31.96
2022-08-03T14:46:45.550Z,32.57
2022-08-03T14:50:34.886Z,34.32
2022-08-03T14:52:05.980Z,35.79
2022-08-03T14:54:36.051Z,36.47
2022-08-03T14:57:10.864Z,37.17
2022-08-03T14:59:57.100Z,38.12
2022-08-03T15:02:28.042Z,39.58
2022-08-03T15:05:13.137Z,40.55
2022-08-03T15:07:41.694Z,40.84
2022-08-03T15:10:12.567Z,41.33
2022-08-03T15:12:45.452Z,41.03
2022-08-03T15:15:16.031Z,41.13
2022-08-03T15:18:00.243Z,41.72
2022-08-03T15:20:43.250Z,41.04
2022-08-03T15:23:53.903Z,40.88
2022-08-03T15:26:30.675Z,41.09
2022-08-03T15:30:09.658Z,41.18
2022-08-03T15:32:14.448Z,41.29
2022-08-03T15:34:50.407Z,42.40
2022-08-03T15:37:22.711Z,41.50
2022-08-03T15:39:59.805Z,40.25
2022-08-03T15:42:30.207Z,40.63
2022-08-03T15:45:06.581Z,40.77
2022-08-03T15:47:38.512Z,41.33
2022-08-03T15:50:38.806Z,40.93
2022-08-03T15:53:09.819Z,40.81
2022-08-03T15:55:41.397Z,40.16
2022-08-03T16:01:34.225Z,40.04
2022-08-03T16:04:05.143Z,39.19
2022-08-03T16:09:42.810Z,39.32
2022-08-03T16:12:16.009Z,39.48
2022-08-03T16:14:52.796Z,40.03
2022-08-03T16:17:26.378Z,40.44
2022-08-03T16:19:55.428Z,42.21
2022-08-03T16:22:24.460Z,41.44
2022-08-03T16:24:53.996Z,40.47
2022-08-03T16:27:56.547Z,38.24
2022-08-03T16:30:28.658Z,37.77
2022-08-03T16:33:06.906Z,39.06
2022-08-03T16:35:38.500Z,39.48
2022-08-03T16:38:24.827Z,39.90
2022-08-03T16:40:53.242Z,38.08
2022-08-03T16:43:25.906Z,35.74
2022-08-03T16:45:55.151Z,35.00
2022-08-03T16:48:25.810Z,34.50
2022-08-03T16:50:54.761Z,34.07
2022-08-03T16:53:33.712Z,34.95
2022-08-03T16:56:11.774Z,33.51
2022-08-03T16:58:42.359Z,33.68
2022-08-03T17:01:24.081Z,32.84
2022-08-03T17:04:03.504Z,32.96
2022-08-03T17:06:35.722Z,32.65
2022-08-03T17:09:08.956Z,32.38
2022-08-03T17:11:39.050Z,31.68
2022-08-03T17:14:14.897Z,30.92
2022-08-03T17:16:52.725Z,32.07
2022-08-03T17:19:27.276Z,32.84
2022-08-03T17:22:04.556Z,32.47
2022-08-03T17:24:41.052Z,32.17
2022-08-03T17:27:23.156Z,32.11
2022-08-03T17:30:09.478Z,30.92
2022-08-03T17:32:56.718Z,30.52
2022-08-03T17:35:34.357Z,29.68
2022-08-03T17:38:10.357Z,29.97
2022-08-03T17:40:39.144Z,29.18
2022-08-03T17:44:14.329Z,28.16
2022-08-03T17:46:10.566Z,28.69
2022-08-03T17:48:41.419Z,28.81
2022-08-03T17:51:20.596Z,27.47
2022-08-03T17:53:55.181Z,28.48
2022-08-03T17:56:42.480Z,28.89
2022-08-03T17:59:50.544Z,28.97
2022-08-03T18:02:47.793Z,29.84
2022-08-03T18:05:21.982Z,30.33
2022-08-03T18:07:59.257Z,30.44
2022-08-03T18:10:35.223Z,30.14
2022-08-03T18:13:10.603Z,29.84
2022-08-03T18:15:43.855Z,30.52
2022-08-03T18:18:15.478Z,30.78
2022-08-03T18:20:48.457Z,31.10
2022-08-03T18:23:25.538Z,32.36
2022-08-03T18:26:11.822Z,33.15
2022-08-03T18:28:41.316Z,33.95
2022-08-03T18:31:11.979Z,34.16
2022-08-03T18:34:18.464Z,34.84
2022-08-03T18:36:37.799Z,36.46
2022-08-03T18:39:12.583Z,37.02
2022-08-03T18:41:44.585Z,37.74
2022-08-03T18:44:37.513Z,38.46
2022-08-03T18:47:16.872Z,39.30
2022-08-03T18:49:59.899Z,40.30
2022-08-03T18:52:32.878Z,40.91
2022-08-03T18:55:20.831Z,41.14
2022-08-03T18:58:01.282Z,40.93
2022-08-03T19:00:54.117Z,40.75
2022-08-03T19:03:43.143Z,41.31
2022-08-03T19:06:20.050Z,40.82
2022-08-03T19:08:55.768Z,39.96
2022-08-03T19:12:14.248Z,38.28
2022-08-03T19:14:28.817Z,37.58
2022-08-03T19:17:07.163Z,37.11
2022-08-03T19:19:44.013Z,37.24
2022-08-03T19:22:29.321Z,37.42
2022-08-03T19:25:02.289Z,37.93
2022-08-03T19:27:33.458Z,38.41
2022-08-03T19:30:14.099Z,39.71
2022-08-03T19:32:52.347Z,40.23
2022-08-03T19:35:51.805Z,41.05
2022-08-03T19:38:11.739Z,41.77
2022-08-03T19:40:51.202Z,42.38
2022-08-03T19:43:57.673Z,43.05
2022-08-03T19:46:36.308Z,43.20
2022-08-03T19:49:15.435Z,44.29
2022-08-03T19:51:58.982Z,44.61
2022-08-03T19:54:45.743Z,44.84
2022-08-03T19:57:24.685Z,44.87
2022-08-03T19:59:57.286Z,45.79
2022-08-03T20:02:28.121Z,46.19
2022-08-03T20:05:00.697Z,46.29
2022-08-03T20:07:47.777Z,46.58
2022-08-03T20:10:38.155Z,46.98
2022-08-03T20:13:08.590Z,47.07
2022-08-03T20:15:41.338Z,46.98
2022-08-03T20:18:16.846Z,47.29
2022-08-03T20:20:49.869Z,47.52
2022-08-03T20:23:23.845Z,47.85
2022-08-03T20:26:03.948Z,48.15
2022-08-03T20:28:50.562Z,48.57
2022-08-03T20:34:11.986Z,49.48
2022-08-03T20:36:46.344Z,49.54
2022-08-03T20:39:14.978Z,49.33
2022-08-03T20:41:50.987Z,49.64
2022-08-03T20:44:26.011Z,49.68
2022-08-03T20:47:00.737Z,50.03
2022-08-03T20:49:46.034Z,49.88
2022-08-03T20:52:18.947Z,50.36
2022-08-03T20:54:49.457Z,49.96
2022-08-03T20:57:34.479Z,50.00
2022-08-03T21:00:17.070Z,50.09
2022-08-03T21:03:14.467Z,50.12
2022-08-03T21:06:11.410Z,50.26
2022-08-03T21:08:48.189Z,50.37
2022-08-03T21:11:25.433Z,50.67
2022-08-03T21:13:13.335Z,48.99
2022-08-03T21:14:00.096Z,50.72
2022-08-03T21:16:30.521Z,51.00
2022-08-03T21:21:52.641Z,51.01
2022-08-03T21:24:25.939Z,50.96
2022-08-03T21:26:57.357Z,50.81
2022-08-03T21:29:28.737Z,51.02
2022-08-03T21:31:58.148Z,50.88
2022-08-03T21:34:45.501Z,50.72
2022-08-03T21:37:15.217Z,50.54
2022-08-03T21:39:50.695Z,50.88
2022-08-03T21:42:27.507Z,50.76
2022-08-03T21:44:55.780Z,50.85
2022-08-03T21:47:25.686Z,50.77
2022-08-03T21:50:06.083Z,50.51
2022-08-03T21:52:42.138Z,50.76
2022-08-03T21:55:20.632Z,50.75
2022-08-03T21:57:53.458Z,50.86
2022-08-03T22:00:24.291Z,50.66
2022-08-03T22:03:17.313Z,50.88
2022-08-03T22:05:47.728Z,50.87
2022-08-03T22:08:17.080Z,51.11
2022-08-03T22:10:55.433Z,50.87
2022-08-03T22:13:43.277Z,50.96
2022-08-03T22:16:12.464Z,50.84
2022-08-03T22:18:42.495Z,50.94
2022-08-03T22:21:14.955Z,50.93
2022-08-03T22:23:48.224Z,50.86
2022-08-03T22:26:32.192Z,50.91
2022-08-03T22:29:07.618Z,50.49
2022-08-03T22:31:58.422Z,50.95
2022-08-03T22:34:27.286Z,50.80
2022-08-03T22:37:02.874Z,50.74
2022-08-03T22:39:31.710Z,50.65
2022-08-03T22:42:00.358Z,51.11
2022-08-03T22:44:29.507Z,50.92
2022-08-03T22:46:59.312Z,50.92
2022-08-03T22:49:29.945Z,50.79
2022-08-03T22:52:01.679Z,50.98
2022-08-03T22:54:32.192Z,50.76
2022-08-03T22:57:03.055Z,50.65
2022-08-03T22:59:40.195Z,50.38
2022-08-03T23:02:20.862Z,50.51
2022-08-03T23:04:52.342Z,50.38
2022-08-03T23:07:30.243Z,50.15
2022-08-03T23:10:00.034Z,50.20
2022-08-03T23:12:29.697Z,50.08
2022-08-03T23:15:02.382Z,49.91
2022-08-03T23:17:32.620Z,49.79
2022-08-03T23:20:04.638Z,49.77
2022-08-03T23:22:39.738Z,50.16
2022-08-03T23:25:12.146Z,49.94
2022-08-03T23:27:43.819Z,50.10
2022-08-03T23:30:13.691Z,49.99
2022-08-03T23:32:44.884Z,49.78
2022-08-03T23:36:22.679Z,49.83
2022-08-03T23:38:35.702Z,49.79
2022-08-03T23:41:06.036Z,49.76
2022-08-03T23:43:50.776Z,50.03
2022-08-03T23:46:22.920Z,49.84
2022-08-03T23:48:51.648Z,49.86
2022-08-03T23:51:33.632Z,49.85
2022-08-03T23:54:11.372Z,49.85
2022-08-03T23:56:46.725Z,49.69
2022-08-03T23:59:26.011Z,49.94
